Time;durP1;ratioP1;P1;durP2;ratioP2;P2;SDS_P1;SDS_P2;PMS_P1;PMS_P2;Temp;Humidity;BMP_temperature;BMP_pressure;BME280_temperature;BME280_humidity;BME280_pressure;Samples;Min_cycle;Max_cycle;Signal;HPM_P1;HPM_P2
2024/04/13 00:00:41;;;;;;;0.30;0.30;;;;;;;7.66;100.00;100824.38;5431600;26;20011;-66
2024/04/13 00:03:06;;;;;;;0.30;0.30;;;;;;;7.70;100.00;100804.56;5431251;26;20072;-66
2024/04/13 00:05:32;;;;;;;0.30;0.30;;;;;;;7.74;100.00;100805.47;5431452;26;20336;-66
2024/04/13 00:07:57;;;;;;;0.38;0.38;;;;;;;7.69;100.00;100782.19;5431042;26;20038;-66
2024/04/13 00:10:26;;;;;;;0.30;0.30;;;;;;;7.76;100.00;100798.63;5431184;26;20004;-66
2024/04/13 00:12:51;;;;;;;0.40;0.40;;;;;;;7.77;100.00;100801.22;5431178;26;20175;-66
2024/04/13 00:15:17;;;;;;;0.40;0.40;;;;;;;7.79;100.00;100802.09;5431397;26;20035;-67
2024/04/13 00:17:43;;;;;;;0.32;0.32;;;;;;;7.78;100.00;100802.09;5431211;26;20014;-67
2024/04/13 00:20:09;;;;;;;0.40;0.40;;;;;;;7.81;100.00;100804.72;5431107;26;20003;-65
2024/04/13 00:22:35;;;;;;;0.40;0.40;;;;;;;7.81;100.00;100805.56;5430722;26;20050;-66
2024/04/13 00:25:02;;;;;;;0.30;0.30;;;;;;;7.83;100.00;100800.41;5431074;26;20007;-66
2024/04/13 00:27:28;;;;;;;0.40;0.40;;;;;;;7.81;100.00;100799.53;5430597;26;20013;-67
2024/04/13 00:29:53;;;;;;;0.40;0.40;;;;;;;7.80;100.00;100798.66;5430941;26;20004;-65
2024/04/13 00:32:19;;;;;;;0.30;0.30;;;;;;;7.83;100.00;100792.63;5430798;26;19999;-66
2024/04/13 00:34:44;;;;;;;0.35;0.35;;;;;;;7.79;100.00;100784.00;5430249;26;20049;-66
2024/04/13 00:37:10;;;;;;;0.40;0.40;;;;;;;7.86;100.00;100790.09;5430966;26;20018;-67
2024/04/13 00:39:36;;;;;;;0.40;0.40;;;;;;;7.89;100.00;100791.84;5398965;26;19999;-66
2024/04/13 00:42:06;;;;;;;0.40;0.40;;;;;;;7.90;100.00;100788.41;5430947;26;20000;-65
2024/04/13 00:44:32;;;;;;;0.30;0.30;;;;;;;7.90;100.00;100786.69;5430569;26;20309;-66
2024/04/13 00:47:05;;;;;;;0.30;0.30;;;;;;;7.88;100.00;100783.22;5430639;26;20000;-66
2024/04/13 00:49:36;;;;;;;0.30;0.30;;;;;;;7.90;100.00;100791.88;5430716;26;19996;-65
2024/04/13 00:52:05;;;;;;;0.35;0.35;;;;;;;7.91;100.00;100780.66;5370397;26;19995;-66
2024/04/13 00:54:32;;;;;;;0.30;0.30;;;;;;;7.91;100.00;100784.94;5430483;26;20018;-66
2024/04/13 00:56:58;;;;;;;0.40;0.40;;;;;;;7.92;100.00;100782.38;5430651;26;20014;-66
2024/04/13 00:59:24;;;;;;;0.30;0.30;;;;;;;7.86;100.00;100763.38;5430696;26;20007;-66
2024/04/13 01:01:52;;;;;;;0.30;0.30;;;;;;;7.96;100.00;100777.22;5430570;26;19999;-66
2024/04/13 01:04:17;;;;;;;0.30;0.30;;;;;;;7.97;100.00;100782.41;5429297;26;20331;-66
2024/04/13 01:06:44;;;;;;;0.30;0.30;;;;;;;7.96;100.00;100764.31;5430560;26;20003;-66
2024/04/13 01:09:10;;;;;;;0.40;0.40;;;;;;;7.99;100.00;100774.66;5430378;26;20476;-66
2024/04/13 01:11:36;;;;;;;0.30;0.30;;;;;;;8.03;100.00;100773.88;5398493;26;20015;-65
2024/04/13 01:14:01;;;;;;;0.40;0.40;;;;;;;8.04;100.00;100760.06;5430326;26;20007;-66
2024/04/13 01:16:28;;;;;;;0.40;0.40;;;;;;;8.08;100.00;100759.25;5398969;26;19995;-66
2024/04/13 01:18:53;;;;;;;0.40;0.40;;;;;;;8.08;100.00;100760.97;5430327;26;19996;-66
2024/04/13 01:21:19;;;;;;;0.30;0.30;;;;;;;8.11;100.00;100766.16;5430033;26;20350;-65
2024/04/13 01:23:44;;;;;;;0.40;0.40;;;;;;;8.11;100.00;100759.28;5430068;26;20006;-65
2024/04/13 01:26:10;;;;;;;0.30;0.30;;;;;;;8.12;100.00;100765.28;5430020;26;20084;-66
2024/04/13 01:28:36;;;;;;;0.30;0.30;;;;;;;8.14;100.00;100764.47;5429934;26;20000;-66
2024/04/13 01:31:02;;;;;;;0.32;0.32;;;;;;;8.13;100.00;100754.13;5398746;26;20006;-66
2024/04/13 01:33:28;;;;;;;0.30;0.30;;;;;;;8.09;100.00;100740.28;5430161;26;20000;-66
2024/04/13 01:35:58;;;;;;;0.30;0.30;;;;;;;8.14;100.00;100750.66;5430415;26;19999;-65
2024/04/13 01:38:23;;;;;;;0.30;0.30;;;;;;;8.14;100.00;100751.53;5398397;26;20006;-65
2024/04/13 01:40:49;;;;;;;0.30;0.30;;;;;;;8.14;100.00;100748.06;5429964;26;19995;-66
2024/04/13 01:43:14;;;;;;;0.40;0.40;;;;;;;8.15;100.00;100736.88;5398404;26;19999;-66
2024/04/13 01:45:39;;;;;;;0.30;0.30;;;;;;;8.15;100.00;100742.03;5429873;26;19999;-66
2024/04/13 01:48:05;;;;;;;0.40;0.40;;;;;;;8.13;100.00;100738.59;5429977;26;20008;-66
2024/04/13 01:50:32;;;;;;;0.40;0.40;;;;;;;8.11;100.00;100741.19;5429733;26;20411;-66
2024/04/13 01:52:57;;;;;;;0.30;0.30;;;;;;;8.11;100.00;100737.72;5429734;26;20003;-66
2024/04/13 01:55:22;;;;;;;0.30;0.30;;;;;;;8.14;100.00;100737.72;5429686;26;20011;-66
2024/04/13 01:57:48;;;;;;;0.40;0.40;;;;;;;8.11;100.00;100733.41;5427848;26;20008;-65
2024/04/13 02:00:15;;;;;;;0.30;0.30;;;;;;;8.07;100.00;100729.06;5429891;26;20011;-66
2024/04/13 02:02:42;;;;;;;0.30;0.30;;;;;;;8.09;100.00;100735.13;5429411;26;20501;-65
2024/04/13 02:05:07;;;;;;;0.32;0.32;;;;;;;8.07;100.00;100731.66;5429706;26;20015;-66
2024/04/13 02:07:33;;;;;;;0.30;0.30;;;;;;;8.08;100.00;100729.94;5429242;26;20134;-64
2024/04/13 02:09:59;;;;;;;0.30;0.30;;;;;;;8.10;100.00;100729.06;5429374;26;20485;-65
2024/04/13 02:12:25;;;;;;;0.30;0.30;;;;;;;8.09;100.00;100723.91;5429401;26;19999;-66
2024/04/13 02:14:50;;;;;;;0.30;0.30;;;;;;;8.09;100.00;100716.13;5428804;26;20358;-65
2024/04/13 02:17:16;;;;;;;0.40;0.40;;;;;;;8.09;100.00;100705.78;5429667;26;20017;-65
2024/04/13 02:19:42;;;;;;;0.30;0.30;;;;;;;8.12;100.00;100717.03;5427589;26;19999;-66
2024/04/13 02:22:07;;;;;;;0.40;0.40;;;;;;;8.11;100.00;100710.16;5429622;26;20011;-66
2024/04/13 02:24:32;;;;;;;0.30;0.30;;;;;;;8.13;100.00;100708.41;5429408;26;20003;-66
2024/04/13 02:26:58;;;;;;;0.38;0.38;;;;;;;8.16;100.00;100712.75;5398113;26;19999;-65
2024/04/13 02:29:25;;;;;;;0.40;0.40;;;;;;;8.15;100.00;100698.94;5429467;26;20382;-66
2024/04/13 02:31:51;;;;;;;0.30;0.30;;;;;;;8.15;100.00;100695.50;5397772;26;20313;-66
2024/04/13 02:34:16;;;;;;;0.40;0.40;;;;;;;8.16;100.00;100685.16;5428870;26;20071;-65
2024/04/13 02:36:42;;;;;;;0.40;0.40;;;;;;;8.14;100.00;100675.66;5429132;26;20003;-65
2024/04/13 02:39:08;;;;;;;0.40;0.40;;;;;;;8.16;100.00;100667.03;5429096;26;19999;-65
2024/04/13 02:41:34;;;;;;;0.40;0.40;;;;;;;8.17;100.00;100662.75;5428969;26;19999;-66
2024/04/13 02:43:59;;;;;;;0.32;0.32;;;;;;;8.16;100.00;100654.13;5428945;26;20003;-65
2024/04/13 02:46:24;;;;;;;0.40;0.40;;;;;;;8.15;100.00;100638.59;5428964;26;20031;-66
2024/04/13 02:48:50;;;;;;;0.40;0.40;;;;;;;8.13;100.00;100632.56;5397454;26;20011;-65
2024/04/13 02:51:16;;;;;;;0.35;0.35;;;;;;;8.14;100.00;100635.16;5428988;26;20003;-65
2024/04/13 02:53:41;;;;;;;0.40;0.40;;;;;;;8.14;100.00;100637.75;5397286;26;20077;-65
2024/04/13 02:56:07;;;;;;;0.30;0.30;;;;;;;8.15;100.00;100634.28;5428982;26;19999;-65
2024/04/13 02:58:33;;;;;;;0.32;0.32;;;;;;;8.14;100.00;100635.16;5428470;26;20095;-65
2024/04/13 03:01:00;;;;;;;0.30;0.30;;;;;;;8.16;100.00;100628.25;5428732;26;20003;-65
2024/04/13 03:03:26;;;;;;;0.40;0.40;;;;;;;8.17;100.00;100632.59;5428669;26;19999;-65
2024/04/13 03:06:09;;;;;;;0.40;0.40;;;;;;;8.18;100.00;100634.31;5428560;26;20002;-66
2024/04/13 03:08:35;;;;;;;0.35;0.35;;;;;;;8.19;100.00;100630.00;5428050;26;20074;-66
2024/04/13 03:11:01;;;;;;;0.40;0.40;;;;;;;8.19;100.00;100623.09;5428665;26;20007;-66
2024/04/13 03:13:27;;;;;;;0.30;0.30;;;;;;;8.22;100.00;100631.75;5428659;26;20428;-66
2024/04/13 03:16:01;;;;;;;0.30;0.30;;;;;;;8.23;100.00;100630.88;5397282;26;20046;-66
2024/04/13 03:18:26;;;;;;;0.40;0.40;;;;;;;8.21;100.00;100607.59;5428525;26;20397;-66
2024/04/13 03:20:52;;;;;;;0.30;0.30;;;;;;;8.26;100.00;100624.00;5428506;26;20012;-66
2024/04/13 03:23:18;;;;;;;0.30;0.30;;;;;;;8.29;100.00;100628.34;5428372;26;20003;-66
2024/04/13 03:25:43;;;;;;;0.32;0.32;;;;;;;8.31;100.00;100621.44;5427244;26;20010;-66
2024/04/13 03:28:09;;;;;;;0.40;0.40;;;;;;;8.29;100.00;100605.91;5428215;26;20000;-66
2024/04/13 03:30:35;;;;;;;0.30;0.30;;;;;;;8.33;100.00;100599.03;5428410;26;20351;-66
2024/04/13 03:33:02;;;;;;;0.30;0.30;;;;;;;8.35;100.00;100610.25;5428262;26;20011;-66
2024/04/13 03:35:28;;;;;;;0.20;0.20;;;;;;;8.36;100.00;100606.81;5428299;26;20027;-66
2024/04/13 03:37:56;;;;;;;0.30;0.30;;;;;;;8.31;100.00;100606.78;5396673;26;20015;-65
2024/04/13 03:40:22;;;;;;;0.30;0.30;;;;;;;8.30;100.00;100607.66;5428315;26;20074;-66
2024/04/13 03:42:48;;;;;;;0.30;0.30;;;;;;;8.30;100.00;100610.25;5427863;26;20000;-66
2024/04/13 03:45:16;;;;;;;0.38;0.38;;;;;;;8.32;100.00;100597.31;5427845;26;20000;-65
2024/04/13 03:47:43;;;;;;;0.30;0.30;;;;;;;8.30;100.00;100583.50;5428027;26;20014;-65
2024/04/13 03:50:08;;;;;;;0.30;0.30;;;;;;;8.33;100.00;100598.16;5427920;26;20033;-65
2024/04/13 03:52:34;;;;;;;0.38;0.38;;;;;;;8.34;100.00;100590.41;5427791;26;19999;-65
2024/04/13 03:54:59;;;;;;;0.30;0.30;;;;;;;8.36;100.00;100593.00;5427623;26;19995;-65
2024/04/13 03:57:24;;;;;;;0.40;0.40;;;;;;;8.37;100.00;100590.41;5427752;26;20000;-65
2024/04/13 03:59:50;;;;;;;0.30;0.30;;;;;;;8.35;100.00;100594.75;5427645;26;20014;-65
2024/04/13 04:02:17;;;;;;;0.30;0.30;;;;;;;8.36;100.00;100593.00;5427674;26;19999;-66
2024/04/13 04:04:42;;;;;;;0.40;0.40;;;;;;;8.35;100.00;100583.50;5427622;26;20329;-65
2024/04/13 04:07:08;;;;;;;0.30;0.30;;;;;;;8.35;100.00;100579.22;5427349;26;20050;-65
2024/04/13 04:09:33;;;;;;;0.30;0.30;;;;;;;8.33;100.00;100583.50;5427477;26;19995;-66
2024/04/13 04:12:00;;;;;;;0.30;0.30;;;;;;;8.30;100.00;100586.97;5427519;26;20072;-66
2024/04/13 04:14:25;;;;;;;0.40;0.40;;;;;;;8.28;100.00;100580.03;5396203;26;20007;-65
2024/04/13 04:16:51;;;;;;;0.30;0.30;;;;;;;8.27;100.00;100579.19;5427607;26;20011;-66
2024/04/13 04:19:16;;;;;;;0.40;0.40;;;;;;;8.28;100.00;100580.03;5427625;26;20011;-66
2024/04/13 04:21:41;;;;;;;0.40;0.40;;;;;;;8.27;100.00;100586.94;5427783;26;19999;-65
2024/04/13 04:24:07;;;;;;;0.30;0.30;;;;;;;8.23;100.00;100566.22;5427786;26;20031;-66
2024/04/13 04:26:32;;;;;;;0.40;0.40;;;;;;;8.24;100.00;100560.19;5427727;26;20000;-66
2024/04/13 04:28:57;;;;;;;0.40;0.40;;;;;;;8.21;100.00;100566.19;5395733;26;20006;-66
2024/04/13 04:31:23;;;;;;;0.40;0.40;;;;;;;8.20;100.00;100567.06;5396218;26;20003;-64
2024/04/13 04:33:52;;;;;;;0.30;0.30;;;;;;;8.18;100.00;100558.44;5427290;26;19999;-65
2024/04/13 04:36:18;;;;;;;0.40;0.40;;;;;;;8.17;100.00;100552.41;5427379;26;20011;-65
2024/04/13 04:38:43;;;;;;;0.40;0.40;;;;;;;8.17;100.00;100557.59;5428788;26;20004;-65
2024/04/13 04:41:09;;;;;;;0.40;0.40;;;;;;;8.14;100.00;100542.06;5430557;26;20045;-65
2024/04/13 04:43:34;;;;;;;0.40;0.40;;;;;;;8.14;100.00;100564.47;5430797;26;20007;-65
2024/04/13 04:45:59;;;;;;;0.30;0.30;;;;;;;8.14;100.00;100549.81;5399384;26;20020;-65
2024/04/13 04:48:25;;;;;;;0.30;0.30;;;;;;;8.13;100.00;100550.66;5430684;26;20331;-64
2024/04/13 04:50:57;;;;;;;0.40;0.40;;;;;;;8.10;100.00;100542.88;5430694;26;20003;-65
2024/04/13 04:53:25;;;;;;;0.40;0.40;;;;;;;8.05;100.00;100540.28;5430336;26;20007;-64
2024/04/13 04:55:51;;;;;;;0.30;0.30;;;;;;;8.02;100.00;100553.19;5430496;26;20035;-64
2024/04/13 04:58:17;;;;;;;0.40;0.40;;;;;;;8.00;100.00;100543.72;5430510;26;19999;-64
2024/04/13 05:00:42;;;;;;;0.40;0.40;;;;;;;7.97;100.00;100541.13;5398988;26;19999;-64
2024/04/13 05:03:07;;;;;;;0.30;0.30;;;;;;;7.98;100.00;100548.00;5398677;26;20481;-65
2024/04/13 05:05:33;;;;;;;0.30;0.30;;;;;;;7.97;100.00;100544.56;5430553;26;19999;-64
2024/04/13 05:07:58;;;;;;;0.40;0.40;;;;;;;7.97;100.00;100557.47;5398658;26;19996;-66
2024/04/13 05:10:23;;;;;;;0.30;0.30;;;;;;;7.96;100.00;100553.19;5399170;26;20047;-64
2024/04/13 05:12:49;;;;;;;0.35;0.35;;;;;;;7.96;100.00;100547.13;5399137;26;20424;-64
2024/04/13 05:15:14;;;;;;;0.30;0.30;;;;;;;7.96;100.00;100552.31;5430533;26;20004;-64
2024/04/13 05:17:41;;;;;;;0.35;0.35;;;;;;;7.96;100.00;100555.75;5430140;26;20009;-66
2024/04/13 05:20:07;;;;;;;0.30;0.30;;;;;;;7.91;100.00;100545.41;5398692;26;19995;-65
2024/04/13 05:22:33;;;;;;;0.40;0.40;;;;;;;7.93;100.00;100556.63;5398807;26;20007;-65
2024/04/13 05:24:58;;;;;;;0.38;0.38;;;;;;;7.92;100.00;100554.88;5430327;26;20049;-65
2024/04/13 05:27:24;;;;;;;0.40;0.40;;;;;;;7.92;100.00;100557.47;5429897;26;19999;-64
2024/04/13 05:29:53;;;;;;;0.30;0.30;;;;;;;7.91;100.00;100547.13;5428927;26;20073;-65
2024/04/13 05:32:18;;;;;;;0.32;0.32;;;;;;;7.89;100.00;100544.53;5429932;26;20031;-65
2024/04/13 05:34:44;;;;;;;0.30;0.30;;;;;;;7.91;100.00;100554.88;5429901;26;20004;-65
2024/04/13 05:37:09;;;;;;;0.40;0.40;;;;;;;7.88;100.00;100549.69;5398212;26;20121;-66
2024/04/13 05:39:35;;;;;;;0.40;0.40;;;;;;;7.88;100.00;100544.50;5429772;26;20028;-66
2024/04/13 05:42:00;;;;;;;0.30;0.30;;;;;;;7.87;100.00;100546.25;5398634;26;20003;-66
2024/04/13 05:44:25;;;;;;;0.30;0.30;;;;;;;7.88;100.00;100544.50;5398553;26;20000;-68
2024/04/13 05:46:51;;;;;;;0.38;0.38;;;;;;;7.85;100.00;100534.16;5429824;26;20328;-67
2024/04/13 05:49:16;;;;;;;0.30;0.30;;;;;;;7.85;100.00;100535.03;5428519;26;20031;-67
2024/04/13 05:51:42;;;;;;;0.30;0.30;;;;;;;7.81;100.00;100533.31;5429972;26;20011;-67
2024/04/13 05:54:07;;;;;;;0.40;0.40;;;;;;;7.84;100.00;100538.50;5429547;26;20022;-68
2024/04/13 05:56:33;;;;;;;0.40;0.40;;;;;;;7.83;100.00;100522.97;5398180;26;19996;-67
2024/04/13 05:58:58;;;;;;;0.30;0.30;;;;;;;7.87;100.00;100537.63;5429529;26;20000;-64
2024/04/13 06:01:25;;;;;;;0.30;0.30;;;;;;;7.90;100.00;100535.94;5429638;26;19995;-64
2024/04/13 06:03:51;;;;;;;0.30;0.30;;;;;;;7.90;100.00;100522.13;5429089;26;20332;-64
2024/04/13 06:06:16;;;;;;;0.40;0.40;;;;;;;7.97;100.00;100536.78;5397900;26;19999;-65
2024/04/13 06:08:42;;;;;;;0.40;0.40;;;;;;;7.97;100.00;100528.19;5397136;26;19995;-64
2024/04/13 06:11:07;;;;;;;0.40;0.40;;;;;;;8.00;100.00;100533.38;5429031;26;20000;-65
2024/04/13 06:13:33;;;;;;;0.40;0.40;;;;;;;8.03;100.00;100536.84;5429244;26;20014;-65
2024/04/13 06:16:02;;;;;;;0.30;0.30;;;;;;;8.06;100.00;100538.56;5428830;26;20003;-64
2024/04/13 06:18:28;;;;;;;0.30;0.30;;;;;;;8.08;100.00;100536.00;5429236;26;20340;-64
2024/04/13 06:20:54;;;;;;;0.30;0.30;;;;;;;8.10;100.00;100542.88;5429262;26;20010;-64
2024/04/13 06:23:20;;;;;;;0.32;0.32;;;;;;;8.11;100.00;100543.75;5428553;26;20014;-63
2024/04/13 06:25:47;;;;;;;0.30;0.30;;;;;;;8.11;100.00;100544.63;5429235;26;20003;-64
2024/04/13 06:28:14;;;;;;;0.30;0.30;;;;;;;8.13;100.00;100536.88;5428861;26;20443;-65
2024/04/13 06:30:42;;;;;;;0.30;0.30;;;;;;;8.15;100.00;100533.44;5428758;26;20007;-65
2024/04/13 06:33:10;;;;;;;0.35;0.35;;;;;;;8.15;100.00;100541.19;5428839;26;20003;-65
2024/04/13 06:35:36;;;;;;;0.30;0.30;;;;;;;8.17;100.00;100547.25;5427168;26;20032;-65
2024/04/13 06:38:03;;;;;;;0.40;0.40;;;;;;;8.23;100.00;100542.94;5428269;26;20010;-65
2024/04/13 06:40:29;;;;;;;0.30;0.30;;;;;;;8.23;100.00;100550.69;5428784;26;20000;-65
2024/04/13 06:42:55;;;;;;;0.30;0.30;;;;;;;8.19;100.00;100542.91;5429045;26;20359;-63
2024/04/13 06:45:20;;;;;;;0.30;0.30;;;;;;;8.26;100.00;100528.28;5428508;26;20432;-65
2024/04/13 06:47:45;;;;;;;0.40;0.40;;;;;;;8.24;100.00;100531.75;5428560;26;20054;-65
2024/04/13 06:50:10;;;;;;;0.30;0.30;;;;;;;8.29;100.00;100535.22;5428261;26;20396;-64
2024/04/13 06:52:36;;;;;;;0.30;0.30;;;;;;;8.36;100.00;100542.13;5428499;26;20011;-65
2024/04/13 06:55:01;;;;;;;0.40;0.40;;;;;;;8.41;100.00;100549.91;5428548;26;20353;-65
2024/04/13 06:57:27;;;;;;;0.30;0.30;;;;;;;8.43;100.00;100543.84;5428478;26;20019;-64
2024/04/13 06:59:52;;;;;;;0.30;0.30;;;;;;;8.46;100.00;100536.97;5428597;26;19996;-65
2024/04/13 07:02:17;;;;;;;0.30;0.30;;;;;;;8.50;100.00;100538.72;5428468;26;20015;-65
2024/04/13 07:04:43;;;;;;;0.30;0.30;;;;;;;8.52;100.00;100537.84;5428980;26;19999;-65
2024/04/13 07:07:08;;;;;;;0.30;0.30;;;;;;;8.55;100.00;100555.13;5428556;26;20076;-65
2024/04/13 07:09:34;;;;;;;0.30;0.30;;;;;;;8.61;100.00;100546.53;5428821;26;20371;-65
2024/04/13 07:11:59;;;;;;;0.30;0.30;;;;;;;8.66;100.00;100544.81;5428447;26;20054;-65
2024/04/13 07:14:25;;;;;;;0.40;0.40;;;;;;;8.72;100.00;100543.97;5428456;26;20027;-65
2024/04/13 07:16:51;;;;;;;0.35;0.35;;;;;;;8.76;100.00;100548.28;5428804;26;19999;-65
2024/04/13 07:19:17;;;;;;;0.30;0.30;;;;;;;8.79;100.00;100545.69;5426767;26;19995;-65
2024/04/13 07:21:43;;;;;;;0.40;0.40;;;;;;;8.84;100.00;100551.75;5428534;26;20003;-67
2024/04/13 07:24:08;;;;;;;0.30;0.30;;;;;;;8.89;100.00;100541.38;5427913;26;20010;-64
2024/04/13 07:26:33;;;;;;;0.20;0.20;;;;;;;8.92;100.00;100550.03;5428315;26;20359;-63
2024/04/13 07:28:59;;;;;;;0.35;0.35;;;;;;;9.00;100.00;100534.50;5428266;26;19999;-64
2024/04/13 07:31:25;;;;;;;0.30;0.30;;;;;;;9.00;100.00;100528.44;5428081;26;20007;-64
2024/04/13 07:33:50;;;;;;;0.30;0.30;;;;;;;8.99;100.00;100527.59;5428122;26;20019;-64
2024/04/13 07:36:16;;;;;;;0.30;0.30;;;;;;;9.09;100.00;100530.19;5428236;26;20008;-63
2024/04/13 07:38:41;;;;;;;0.40;0.40;;;;;;;9.17;100.00;100525.84;5427743;26;20018;-64
2024/04/13 07:41:07;;;;;;;0.40;0.40;;;;;;;9.22;100.00;100512.91;5428067;26;19999;-64
2024/04/13 07:43:32;;;;;;;0.28;0.28;;;;;;;9.29;100.00;100522.38;5427676;26;20019;-63
2024/04/13 07:45:57;;;;;;;0.40;0.40;;;;;;;9.36;100.00;100525.84;5396533;26;20011;-65
2024/04/13 07:48:23;;;;;;;0.30;0.30;;;;;;;9.36;100.00;100525.84;5427877;26;20011;-64
2024/04/13 07:50:48;;;;;;;0.30;0.30;;;;;;;9.37;100.00;100540.50;5428048;26;20505;-63
2024/04/13 07:53:13;;;;;;;0.40;0.40;;;;;;;9.32;100.00;100540.53;5427957;26;20123;-63
2024/04/13 07:55:39;;;;;;;0.40;0.40;;;;;;;9.29;100.00;100535.34;5427664;26;20000;-62
2024/04/13 07:58:04;;;;;;;0.30;0.30;;;;;;;9.25;100.00;100544.00;5427910;26;20000;-63
2024/04/13 08:00:29;;;;;;;0.40;0.40;;;;;;;9.25;100.00;100523.28;5427483;26;20536;-63
2024/04/13 08:02:55;;;;;;;0.30;0.30;;;;;;;9.28;100.00;100520.69;5425857;26;20053;-64
2024/04/13 08:05:20;;;;;;;0.40;0.40;;;;;;;9.31;100.00;100528.44;5427558;26;20014;-62
2024/04/13 08:07:45;;;;;;;0.40;0.40;;;;;;;9.37;100.00;100520.66;5427247;26;20000;-61
2024/04/13 08:10:11;;;;;;;0.40;0.40;;;;;;;9.44;100.00;100520.66;5427182;26;20045;-62
2024/04/13 08:12:36;;;;;;;0.38;0.38;;;;;;;9.47;100.00;100513.72;5428843;26;20014;-62
2024/04/13 08:15:02;;;;;;;0.40;0.40;;;;;;;9.50;100.00;100528.41;5399275;26;20004;-62
2024/04/13 08:17:28;;;;;;;1.15;1.05;;;;;;;9.53;100.00;100523.22;5430509;26;20004;-62
2024/04/13 08:19:54;;;;;;;0.30;0.30;;;;;;;9.56;100.00;100528.38;5429368;26;19999;-62
2024/04/13 08:22:20;;;;;;;0.50;0.50;;;;;;;9.59;100.00;100536.16;5430593;26;20014;-62
2024/04/13 08:24:45;;;;;;;0.40;0.40;;;;;;;9.62;100.00;100537.88;5430015;26;20324;-61
2024/04/13 08:27:11;;;;;;;0.30;0.30;;;;;;;9.61;100.00;100541.34;5430318;26;20015;-61
2024/04/13 08:29:37;;;;;;;0.30;0.30;;;;;;;9.64;100.00;100541.31;5430073;26;20000;-61
2024/04/13 08:32:02;;;;;;;0.20;0.20;;;;;;;9.61;100.00;100557.75;5430926;26;20004;-61
2024/04/13 08:34:28;;;;;;;0.28;0.28;;;;;;;9.60;100.00;100553.41;5430736;26;20008;-62
2024/04/13 08:36:53;;;;;;;0.30;0.30;;;;;;;9.61;100.00;100555.16;5430702;26;20000;-62
2024/04/13 08:39:19;;;;;;;0.30;0.30;;;;;;;9.69;100.00;100551.69;5430407;26;20000;-62
2024/04/13 08:41:53;;;;;;;0.30;0.30;;;;;;;9.69;100.00;100556.88;5430403;26;20014;-63
2024/04/13 08:44:18;;;;;;;0.30;0.30;;;;;;;9.72;100.00;100555.13;5430316;26;20000;-63
2024/04/13 08:46:44;;;;;;;0.40;0.40;;;;;;;9.77;100.00;100543.03;5430817;26;20091;-63
2024/04/13 08:49:13;;;;;;;0.40;0.40;;;;;;;9.80;100.00;100547.34;5398989;26;20007;-62
2024/04/13 08:51:39;;;;;;;0.30;0.30;;;;;;;9.88;100.00;100555.09;5429930;26;20004;-63
2024/04/13 08:54:07;;;;;;;0.30;0.30;;;;;;;9.91;100.00;100547.31;5398822;26;20014;-63
2024/04/13 08:56:36;;;;;;;0.30;0.30;;;;;;;9.92;100.00;100546.41;5430712;26;20018;-63
2024/04/13 08:59:06;;;;;;;0.20;0.20;;;;;;;9.88;100.00;100550.78;5430383;26;19999;-63
2024/04/13 09:01:33;;;;;;;0.30;0.30;;;;;;;9.86;100.00;100552.50;5430138;26;20036;-63
2024/04/13 09:03:59;;;;;;;0.30;0.30;;;;;;;9.79;100.00;100550.81;5429864;26;19999;-62
2024/04/13 09:06:24;;;;;;;0.38;0.38;;;;;;;9.72;100.00;100551.69;5430175;26;20448;-62
2024/04/13 09:08:50;;;;;;;0.40;0.40;;;;;;;9.70;100.00;100537.84;5429492;26;20000;-62
2024/04/13 09:11:15;;;;;;;0.30;0.30;;;;;;;9.70;100.00;100546.50;5430316;26;19999;-63
2024/04/13 09:13:44;;;;;;;0.30;0.30;;;;;;;9.70;100.00;100543.03;5429808;26;20013;-63
2024/04/13 09:16:10;;;;;;;0.30;0.30;;;;;;;9.61;100.00;100526.66;5430464;26;20015;-64
2024/04/13 09:18:35;;;;;;;0.30;0.30;;;;;;;9.63;100.00;100526.66;5429872;26;20091;-65
2024/04/13 09:21:05;;;;;;;0.30;0.30;;;;;;;9.73;100.00;100549.06;5398750;26;20312;-65
2024/04/13 09:23:30;;;;;;;0.30;0.30;;;;;;;9.80;100.00;100542.16;5428465;26;20008;-65
2024/04/13 09:26:06;;;;;;;0.30;0.30;;;;;;;9.86;100.00;100547.31;5398197;26;19999;-66
2024/04/13 09:28:44;;;;;;;0.30;0.30;;;;;;;9.87;100.00;100545.59;5429878;26;20400;-65
2024/04/13 09:31:11;;;;;;;0.30;0.30;;;;;;;9.91;100.00;100548.16;5429842;26;20072;-65
2024/04/13 09:33:37;;;;;;;0.30;0.30;;;;;;;9.89;100.00;100544.72;5429967;26;20011;-65
2024/04/13 09:36:03;;;;;;;0.30;0.30;;;;;;;9.94;100.00;100547.28;5429641;26;20075;-65
2024/04/13 09:38:28;;;;;;;0.40;0.40;;;;;;;9.95;100.00;100556.81;5429153;26;20004;-66
2024/04/13 09:40:57;;;;;;;0.38;0.38;;;;;;;9.98;100.00;100556.81;5429521;26;19999;-66
2024/04/13 09:43:23;;;;;;;0.30;0.30;;;;;;;10.02;100.00;100532.56;5429502;26;20003;-66
2024/04/13 09:45:55;;;;;;;0.30;0.30;;;;;;;10.04;100.00;100550.72;5429443;26;20018;-66
2024/04/13 09:48:21;;;;;;;0.30;0.30;;;;;;;10.08;100.00;100546.38;5429668;26;20006;-67
2024/04/13 09:50:46;;;;;;;0.30;0.30;;;;;;;10.10;100.00;100549.81;5429371;26;20009;-68
2024/04/13 09:53:12;;;;;;;0.30;0.30;;;;;;;10.09;100.00;100561.06;5428326;26;20111;-67
2024/04/13 09:55:38;;;;;;;0.20;0.20;;;;;;;10.08;100.00;100551.56;5397266;26;20010;-67
2024/04/13 09:58:04;;;;;;;0.30;0.30;;;;;;;10.07;100.00;100555.03;5428601;26;20015;-68
2024/04/13 10:00:30;;;;;;;0.30;0.30;;;;;;;10.02;100.00;100536.88;5428986;26;20323;-69
2024/04/13 10:02:55;;;;;;;0.40;0.40;;;;;;;10.03;100.00;100544.66;5397796;26;20011;-68
2024/04/13 10:05:23;;;;;;;0.30;0.30;;;;;;;10.08;100.00;100534.25;5429016;26;20270;-68
2024/04/13 10:07:49;;;;;;;0.30;0.30;;;;;;;10.09;100.00;100533.41;5429297;26;20010;-68
2024/04/13 10:10:17;;;;;;;0.30;0.30;;;;;;;10.16;100.00;100542.00;5428911;26;20373;-69
2024/04/13 10:12:44;;;;;;;0.30;0.30;;;;;;;10.21;100.00;100540.25;5429241;26;20014;-68
2024/04/13 10:15:11;;;;;;;0.40;0.40;;;;;;;10.32;100.00;100537.59;5429495;26;20003;-67
2024/04/13 10:17:39;;;;;;;0.20;0.20;;;;;;;10.30;100.00;100523.78;5397671;26;20000;-68
2024/04/13 10:20:05;;;;;;;0.30;0.30;;;;;;;10.33;100.00;100534.16;5428786;26;20065;-68
2024/04/13 10:22:33;;;;;;;0.30;0.30;;;;;;;10.34;100.00;100525.50;5429027;26;19999;-67
2024/04/13 10:25:06;;;;;;;0.30;0.30;;;;;;;10.40;100.00;100528.06;5426932;26;20443;-67
2024/04/13 10:27:33;;;;;;;0.30;0.30;;;;;;;10.39;100.00;100526.34;5429005;26;19999;-66
2024/04/13 10:30:00;;;;;;;0.30;0.30;;;;;;;10.46;100.00;100513.31;5428671;26;20443;-66
2024/04/13 10:32:25;;;;;;;0.30;0.30;;;;;;;10.46;100.00;100515.91;5428775;26;20465;-65
2024/04/13 10:34:51;;;;;;;0.30;0.30;;;;;;;10.49;100.00;100522.00;5428105;26;20015;-66
2024/04/13 10:37:46;;;;;;;0.40;0.40;;;;;;;10.57;100.00;100519.34;5428906;26;20010;-66
2024/04/13 10:40:22;;;;;;;0.30;0.30;;;;;;;10.53;100.00;100526.28;5412920;26;20423;-64
2024/04/13 10:42:48;;;;;;;0.28;0.28;;;;;;;10.38;100.00;100524.59;5428922;26;20007;-65
2024/04/13 10:45:18;;;;;;;0.40;0.40;;;;;;;10.33;100.00;100541.06;5428555;26;19995;-65
2024/04/13 10:47:44;;;;;;;0.20;0.20;;;;;;;10.40;100.00;100533.25;5428666;26;20015;-64
2024/04/13 10:50:15;;;;;;;0.20;0.20;;;;;;;10.45;100.00;100543.59;5428780;26;20007;-65
2024/04/13 10:52:41;;;;;;;0.57;0.57;;;;;;;10.43;100.00;100534.97;5397403;26;20008;-66
2024/04/13 10:55:11;;;;;;;0.30;0.30;;;;;;;10.47;100.00;100533.22;5428516;26;20453;-66
2024/04/13 10:57:39;;;;;;;0.70;0.70;;;;;;;10.51;100.00;100538.41;5397277;26;20003;-65
2024/04/13 11:00:07;;;;;;;3.22;3.00;;;;;;;10.56;100.00;100546.16;5397135;26;20075;-64
2024/04/13 11:02:32;;;;;;;4.00;3.80;;;;;;;10.53;100.00;100540.97;5428744;26;20014;-64
2024/04/13 11:04:58;;;;;;;0.32;0.32;;;;;;;10.48;100.00;100546.22;5397063;26;20000;-65
2024/04/13 11:07:23;;;;;;;0.40;0.40;;;;;;;10.41;100.00;100540.16;5428579;26;20000;-64
2024/04/13 11:09:49;;;;;;;0.30;0.30;;;;;;;10.34;100.00;100537.59;5428539;26;20011;-64
2024/04/13 11:12:14;;;;;;;0.50;0.50;;;;;;;10.31;100.00;100538.50;5428140;26;19999;-65
2024/04/13 11:14:40;;;;;;;0.38;0.38;;;;;;;10.27;100.00;100534.19;5428472;26;20031;-65
2024/04/13 11:17:05;;;;;;;0.30;0.30;;;;;;;10.27;100.00;100539.38;5427852;26;20081;-64
2024/04/13 11:19:31;;;;;;;0.30;0.30;;;;;;;10.31;100.00;100543.69;5428015;26;20022;-65